Airfield :
LOGIN :

Register | Disclaimer

   EN    FR    IT 

 










Legend :    VFR   Marginal VFR   IFR   Intensive IFR   Very Intensive IFR
Visi :
Ceiling :
>= 8 km
>= 3000ft
5 to 8 km
1000 to 3000 ft
1500m to 5 km
500 to 1000 ft
800 to 1500m
200 to 500 ft
< 800m
< 200 ft
Symbols :   Thunderstorms  Fog  Heavy snow  Heavy precipitations  Wind > 20 kt
SIGMETs :     Misc.  Thunderstorms  Icing  Turbulence  Mountain Waves  Volcanic Ashes






- Airport Elevation : 247 ft
- IATA code : BLL


EKBI - Billund

CURRENT METAR :
  • 110350Z AUTO 09010KT 070V130 9999 -RA OVC044/// 03/M01 Q1013

EXPIRED METARs :
  • 110320Z AUTO 07009KT 9999 OVC051/// 03/M00 Q1013
  • 110250Z AUTO 04010KT 9999 OVC043/// 03/M01 Q1013
  • 110220Z AUTO 06010KT 9999 OVC045/// 03/M01 Q1013
  • 110150Z AUTO 05011KT 9999 OVC062/// 03/M01 Q1014
  • 110120Z AUTO 05009KT 9999 OVC077/// 03/M01 Q1014

TAF TAF EKBI
Valid from the 11 at 00:00 until the 12 at 00:00 UTC


102309Z 1100/1124 05010KT 9999 SCT025
BECMG 1105/1107 4000 -RA BKN008
TEMPO 1107/1115 1200 SNRA BR BKN002
TEMPO 1115/1124 2000 BR BKN002



MET'MAP, your aeronautical weather chart ! - Copyright ORBIFLY December 2007 - Disclaimer

ORBIFLY MET'MAP TEAM :

Programming & Development : Alexandra Zaïnal
Concept & original design : Baudouin d'Aumeries
Assistance for programming : Marc-Olivier Méhu
Technical & hardware support : Manuel Goepfert

Contact : metmap@orbifly.com




SOURCES & CREDITS :

   NOAA